Time;durP1;ratioP1;P1;durP2;ratioP2;P2;SDS_P1;SDS_P2;PMS_P1;PMS_P2;Temp;Humidity;BMP_temperature;BMP_pressure;BME280_temperature;BME280_humidity;BME280_pressure;Samples;Min_cycle;Max_cycle;Signal;HPM_P1;HPM_P2
2023/04/01 00:00:12;;;;;;;;;;;11.00;99.90;11.60;99192.00;;;;343012;28;82565;-89
2023/04/01 00:00:24;;;;;;;;;;;11.00;99.90;11.50;99184.00;;;;342612;28;91796;-89
2023/04/01 00:00:35;;;;;;;;;;;11.00;99.90;11.50;99197.00;;;;344724;28;82558;-89
2023/04/01 00:00:47;;;;;;;;;;;11.00;99.90;11.50;99186.00;;;;341689;28;89652;-89
2023/04/01 00:01:00;;;;;;;;;;;11.00;99.90;11.50;99193.00;;;;344484;28;83363;-89
2023/04/01 00:01:16;;;;;;;;;;;11.00;99.90;11.50;99190.00;;;;342955;28;91080;-89
2023/04/01 00:01:28;;;;;;;;;;;11.00;99.90;11.50;99189.00;;;;346211;28;82548;-89
2023/04/01 00:01:40;;;;;;;;;;;11.00;99.90;11.40;99195.00;;;;342888;28;89467;-89
2023/04/01 00:01:52;;;;;;;;;;;11.00;99.90;11.30;99188.00;;;;343579;28;82431;-89
2023/04/01 00:02:03;;;;;;;;;;;11.00;99.90;11.30;99184.00;;;;345707;28;91455;-89
2023/04/01 00:02:15;;;;;;;;;;;11.00;99.90;11.40;99192.00;;;;344831;28;82352;-88
2023/04/01 00:02:27;;;;;;;;;;;11.00;99.90;11.40;99195.00;;;;342983;28;89459;-89
2023/04/01 00:02:40;;;;;;;;;;;11.00;99.90;11.50;99184.00;;;;340520;28;82547;-88
2023/04/01 00:02:52;;;;;;;;;;;11.00;99.90;11.50;99190.00;;;;337528;28;88612;-89
2023/04/01 00:03:04;;;;;;;;;;;11.00;99.90;11.40;99194.00;;;;343226;28;83499;-89
2023/04/01 00:03:16;;;;;;;;;;;11.00;99.90;11.40;99184.00;;;;345185;28;90692;-89
2023/04/01 00:03:29;;;;;;;;;;;11.00;99.90;11.40;99185.00;;;;343503;28;83511;-89
2023/04/01 00:03:41;;;;;;;;;;;11.00;99.90;11.50;99191.00;;;;342919;28;91321;-89
2023/04/01 00:03:54;;;;;;;;;;;11.00;99.90;11.60;99185.00;;;;344578;28;83509;-89
2023/04/01 00:04:06;;;;;;;;;;;11.00;99.90;11.50;99190.00;;;;344346;28;91519;-89
2023/04/01 00:04:18;;;;;;;;;;;11.00;99.90;11.50;99187.00;;;;344646;28;83433;-89
2023/04/01 00:04:30;;;;;;;;;;;11.00;99.90;11.50;99188.00;;;;342978;28;92382;-89
2023/04/01 00:04:42;;;;;;;;;;;11.00;99.90;11.40;99191.00;;;;340630;28;82541;-88
2023/04/01 00:04:54;;;;;;;;;;;11.00;99.90;11.30;99191.00;;;;344002;28;91268;-88
2023/04/01 00:05:07;;;;;;;;;;;11.00;99.90;11.40;99191.00;;;;343099;28;83567;-89
2023/04/01 00:05:18;;;;;;;;;;;11.00;99.90;11.50;99191.00;;;;345498;28;91238;-89
2023/04/01 00:05:30;;;;;;;;;;;11.00;99.90;11.50;99184.00;;;;343401;28;83554;-89
2023/04/01 00:05:42;;;;;;;;;;;11.00;99.90;11.40;99193.00;;;;344201;28;91611;-89
2023/04/01 00:05:55;;;;;;;;;;;11.00;99.90;11.40;99200.00;;;;344816;28;83260;-89
2023/04/01 00:06:07;;;;;;;;;;;11.00;99.90;11.40;99191.00;;;;340296;28;90640;-89
2023/04/01 00:06:19;;;;;;;;;;;11.00;99.90;11.40;99187.00;;;;342047;28;83446;-89
2023/04/01 00:06:30;;;;;;;;;;;11.00;99.90;11.50;99183.00;;;;344336;28;91366;-89
2023/04/01 00:06:42;;;;;;;;;;;11.00;99.90;11.50;99181.00;;;;347584;28;83401;-89
2023/04/01 00:06:54;;;;;;;;;;;11.00;99.90;11.50;99189.00;;;;344333;28;91301;-89
2023/04/01 00:07:06;;;;;;;;;;;11.00;99.90;11.40;99189.00;;;;344932;28;83413;-89
2023/04/01 00:07:17;;;;;;;;;;;11.00;99.90;11.40;99190.00;;;;345472;28;90675;-89
2023/04/01 00:07:30;;;;;;;;;;;11.00;99.90;11.40;99184.00;;;;343190;28;82482;-89
2023/04/01 00:07:42;;;;;;;;;;;11.00;99.90;11.30;99181.00;;;;342832;28;89280;-89
2023/04/01 00:07:54;;;;;;;;;;;11.00;99.90;11.30;99181.00;;;;346170;28;83279;-88
2023/04/01 00:08:06;;;;;;;;;;;11.00;99.90;11.30;99178.00;;;;342852;28;90436;-89
2023/04/01 00:08:18;;;;;;;;;;;11.00;99.90;11.30;99168.00;;;;342049;28;83361;-89
2023/04/01 00:08:30;;;;;;;;;;;11.00;99.90;11.30;99188.00;;;;345180;28;91721;-87
2023/04/01 00:08:42;;;;;;;;;;;11.00;99.90;11.30;99185.00;;;;343365;28;82368;-89
2023/04/01 00:08:54;;;;;;;;;;;11.00;99.90;11.40;99181.00;;;;344417;28;89203;-89
2023/04/01 00:09:05;;;;;;;;;;;11.00;99.90;11.50;99184.00;;;;344849;28;83505;-89
2023/04/01 00:09:17;;;;;;;;;;;11.00;99.90;11.50;99179.00;;;;341566;28;92034;-89
2023/04/01 00:09:29;;;;;;;;;;;11.00;99.90;11.50;99181.00;;;;344882;28;82516;-89
2023/04/01 00:09:41;;;;;;;;;;;11.00;99.90;11.50;99183.00;;;;343925;28;90585;-89
2023/04/01 00:09:52;;;;;;;;;;;11.00;99.90;11.50;99185.00;;;;346135;28;82572;-88
2023/04/01 00:10:06;;;;;;;;;;;11.00;99.90;11.40;99181.00;;;;342831;28;89143;-89
2023/04/01 00:10:17;;;;;;;;;;;11.00;99.90;11.40;99179.00;;;;341754;28;83404;-89
2023/04/01 00:10:29;;;;;;;;;;;11.00;99.90;11.40;99173.00;;;;344336;28;91413;-89
2023/04/01 00:10:41;;;;;;;;;;;11.00;99.90;11.40;99179.00;;;;344803;28;83295;-89
2023/04/01 00:10:53;;;;;;;;;;;11.00;99.90;11.40;99169.00;;;;344562;28;88772;-89
2023/04/01 00:11:05;;;;;;;;;;;11.00;99.90;11.30;99179.00;;;;344519;28;83411;-89
2023/04/01 00:11:17;;;;;;;;;;;11.00;99.90;11.40;99182.00;;;;345601;28;88875;-89
2023/04/01 00:11:31;;;;;;;;;;;11.00;99.90;11.40;99172.00;;;;344812;28;83394;-89
2023/04/01 00:11:44;;;;;;;;;;;11.00;99.90;11.50;99179.00;;;;341558;28;91212;-89
2023/04/01 00:11:56;;;;;;;;;;;11.00;99.90;11.40;99176.00;;;;342043;28;82528;-89
2023/04/01 00:12:07;;;;;;;;;;;11.00;99.90;11.40;99171.00;;;;345759;28;88825;-89
2023/04/01 00:12:19;;;;;;;;;;;11.00;99.90;11.30;99178.00;;;;344598;28;83548;-88
2023/04/01 00:12:31;;;;;;;;;;;11.00;99.90;11.20;99172.00;;;;342976;28;91897;-89
2023/04/01 00:12:43;;;;;;;;;;;11.00;99.90;11.30;99177.00;;;;344597;28;83557;-89
2023/04/01 00:12:55;;;;;;;;;;;10.90;99.90;11.20;99174.00;;;;343020;28;89834;-89
2023/04/01 00:13:06;;;;;;;;;;;10.90;99.90;11.20;99175.00;;;;344736;28;82509;-89
2023/04/01 00:13:18;;;;;;;;;;;11.00;99.90;11.20;99172.00;;;;344031;28;91629;-89
2023/04/01 00:13:30;;;;;;;;;;;10.90;99.90;11.20;99179.00;;;;340741;28;83369;-89
2023/04/01 00:13:42;;;;;;;;;;;10.90;99.90;11.20;99178.00;;;;342779;28;91802;-89
2023/04/01 00:13:54;;;;;;;;;;;10.90;99.90;11.20;99179.00;;;;340549;28;83369;-89
2023/04/01 00:14:06;;;;;;;;;;;10.90;99.90;11.20;99184.00;;;;337600;28;88738;-89
2023/04/01 00:14:18;;;;;;;;;;;11.00;99.90;11.10;99188.00;;;;343404;28;83767;-88
2023/04/01 00:14:30;;;;;;;;;;;10.90;99.90;11.10;99176.00;;;;342929;28;90962;-89
2023/04/01 00:14:42;;;;;;;;;;;10.90;99.90;11.10;99170.00;;;;343590;28;82523;-89
2023/04/01 00:14:53;;;;;;;;;;;10.90;99.90;11.10;99177.00;;;;341515;28;88516;-89
2023/04/01 00:15:06;;;;;;;;;;;10.90;99.90;11.20;99183.00;;;;343290;28;82560;-89
2023/04/01 00:15:18;;;;;;;;;;;10.90;99.90;11.10;99173.00;;;;342949;28;89156;-88
2023/04/01 00:15:30;;;;;;;;;;;10.90;99.90;11.10;99176.00;;;;344394;28;83594;-89
2023/04/01 00:15:42;;;;;;;;;;;10.90;99.90;11.00;99179.00;;;;343119;28;88571;-89
2023/04/01 00:15:55;;;;;;;;;;;10.90;99.90;11.00;99185.00;;;;343201;28;82575;-88
2023/04/01 00:16:07;;;;;;;;;;;10.90;99.90;11.00;99179.00;;;;343114;28;89131;-88
2023/04/01 00:16:32;;;;;;;;;;;10.90;99.90;11.20;99184.00;;;;344970;28;83204;-88
2023/04/01 00:16:43;;;;;;;;;;;10.80;99.90;11.30;99178.00;;;;342895;28;92451;-89
2023/04/01 00:16:55;;;;;;;;;;;10.90;99.90;11.40;99173.00;;;;344590;28;82655;-88
2023/04/01 00:17:07;;;;;;;;;;;10.90;99.90;11.30;99175.00;;;;342975;28;91372;-87
2023/04/01 00:17:19;;;;;;;;;;;10.90;99.90;11.30;99176.00;;;;343146;28;83539;-89
2023/04/01 00:17:31;;;;;;;;;;;10.80;99.90;11.30;99175.00;;;;342811;28;89434;-89
2023/04/01 00:17:43;;;;;;;;;;;10.80;99.90;11.40;99177.00;;;;340807;28;82424;-89
2023/04/01 00:17:55;;;;;;;;;;;10.90;99.90;11.40;99178.00;;;;345602;28;89875;-89
2023/04/01 00:18:07;;;;;;;;;;;10.90;99.90;11.40;99163.00;;;;344815;28;83431;-89
2023/04/01 00:18:19;;;;;;;;;;;10.90;99.90;11.30;99169.00;;;;341249;28;90512;-90
2023/04/01 00:18:31;;;;;;;;;;;10.90;99.90;11.30;99172.00;;;;345967;28;83550;-89
2023/04/01 00:18:42;;;;;;;;;;;10.90;99.90;11.30;99170.00;;;;342909;28;92341;-89
2023/04/01 00:18:54;;;;;;;;;;;10.90;99.90;11.20;99169.00;;;;343396;28;83456;-89
2023/04/01 00:19:06;;;;;;;;;;;10.90;99.90;11.30;99167.00;;;;344378;28;89251;-89
2023/04/01 00:19:18;;;;;;;;;;;10.90;99.90;11.20;99172.00;;;;344699;28;83399;-89
2023/04/01 00:19:31;;;;;;;;;;;10.90;99.90;11.10;99170.00;;;;343053;28;90859;-89
2023/04/01 00:19:43;;;;;;;;;;;10.80;99.90;11.10;99175.00;;;;344726;28;83416;-88
2023/04/01 00:19:55;;;;;;;;;;;10.90;99.90;11.00;99177.00;;;;337561;28;89725;-89
2023/04/01 00:20:07;;;;;;;;;;;10.90;99.90;11.00;99179.00;;;;337888;28;83451;-88
2023/04/01 00:20:19;;;;;;;;;;;10.80;99.90;10.90;99177.00;;;;342739;28;91560;-89
2023/04/01 00:20:31;;;;;;;;;;;10.80;99.90;10.90;99172.00;;;;344775;28;83603;-89
2023/04/01 00:20:47;;;;;;;;;;;10.80;99.90;10.90;99176.00;;;;341893;28;92424;-88
2023/04/01 00:20:59;;;;;;;;;;;10.80;99.90;10.90;99177.00;;;;345060;28;82486;-89
2023/04/01 00:21:11;;;;;;;;;;;10.80;99.90;10.90;99175.00;;;;344786;28;88876;-89
2023/04/01 00:21:23;;;;;;;;;;;10.80;99.90;10.90;99182.00;;;;345260;28;83193;-89
2023/04/01 00:21:35;;;;;;;;;;;10.80;99.90;10.90;99182.00;;;;341715;28;90503;-89
2023/04/01 00:21:47;;;;;;;;;;;10.80;99.90;10.90;99178.00;;;;338396;28;82436;-88
2023/04/01 00:21:59;;;;;;;;;;;10.80;99.90;10.90;99180.00;;;;345917;28;90602;-88
2023/04/01 00:22:11;;;;;;;;;;;10.80;99.90;10.90;99177.00;;;;345173;28;83394;-89
2023/04/01 00:22:23;;;;;;;;;;;10.80;99.90;10.90;99178.00;;;;344747;28;89232;-88
2023/04/01 00:22:36;;;;;;;;;;;10.70;99.90;11.00;99178.00;;;;346402;28;83578;-89
2023/04/01 00:22:47;;;;;;;;;;;10.70;99.90;11.00;99178.00;;;;343356;28;91241;-89
2023/04/01 00:22:59;;;;;;;;;;;10.70;99.90;11.00;99175.00;;;;343675;28;83448;-89
2023/04/01 00:23:11;;;;;;;;;;;10.70;99.90;11.00;99180.00;;;;345782;28;89555;-89
2023/04/01 00:23:23;;;;;;;;;;;10.70;99.90;11.00;99175.00;;;;342307;28;82468;-89
2023/04/01 00:23:35;;;;;;;;;;;10.70;99.90;11.10;99172.00;;;;345529;28;91940;-88
2023/04/01 00:23:48;;;;;;;;;;;10.70;99.90;11.10;99176.00;;;;344817;28;83485;-89
2023/04/01 00:24:00;;;;;;;;;;;10.70;99.90;11.10;99178.00;;;;342594;28;91698;-89
2023/04/01 00:24:12;;;;;;;;;;;10.70;99.90;11.20;99180.00;;;;344665;28;83278;-89
2023/04/01 00:24:24;;;;;;;;;;;10.70;99.90;11.10;99193.00;;;;344188;28;90184;-89
2023/04/01 00:24:36;;;;;;;;;;;10.70;99.90;11.10;99186.00;;;;343191;28;83538;-89
2023/04/01 00:24:47;;;;;;;;;;;10.70;99.90;11.10;99183.00;;;;342788;28;92503;-89
2023/04/01 00:24:59;;;;;;;;;;;10.70;99.90;11.10;99177.00;;;;345993;28;83474;-89
2023/04/01 00:25:11;;;;;;;;;;;10.70;99.90;11.20;99192.00;;;;341848;28;88084;-89
2023/04/01 00:25:23;;;;;;;;;;;10.70;99.90;11.20;99180.00;;;;343447;28;83376;-89
2023/04/01 00:25:35;;;;;;;;;;;10.70;99.90;11.20;99174.00;;;;346381;28;90514;-88
2023/04/01 00:25:47;;;;;;;;;;;10.70;99.90;11.20;99177.00;;;;339361;28;83540;-88
2023/04/01 00:26:01;;;;;;;;;;;10.70;99.90;11.40;99177.00;;;;339258;28;88798;-89
2023/04/01 00:26:14;;;;;;;;;;;10.70;99.90;11.40;99183.00;;;;342427;28;83339;-88
2023/04/01 00:26:26;;;;;;;;;;;10.70;99.90;11.30;99182.00;;;;341996;28;91532;-89
2023/04/01 00:26:38;;;;;;;;;;;10.80;99.90;11.30;99178.00;;;;345080;28;82572;-88
2023/04/01 00:26:49;;;;;;;;;;;10.70;99.90;11.30;99185.00;;;;337821;28;92555;-88
2023/04/01 00:27:01;;;;;;;;;;;10.80;99.90;11.30;99181.00;;;;336835;28;83426;-89
2023/04/01 00:27:13;;;;;;;;;;;10.80;99.90;11.30;99175.00;;;;344657;28;90432;-89
2023/04/01 00:27:25;;;;;;;;;;;10.80;99.90;11.40;99184.00;;;;342319;28;82446;-89
2023/04/01 00:27:37;;;;;;;;;;;10.80;99.90;11.30;99177.00;;;;343283;28;89271;-89
2023/04/01 00:27:49;;;;;;;;;;;10.80;99.90;11.40;99177.00;;;;343668;28;83428;-89
2023/04/01 00:28:02;;;;;;;;;;;10.80;99.90;11.50;99181.00;;;;344825;28;88770;-89
2023/04/01 00:28:17;;;;;;;;;;;10.80;99.90;11.40;99180.00;;;;344940;28;83597;-89
2023/04/01 00:28:29;;;;;;;;;;;10.80;99.90;11.30;99168.00;;;;344822;28;90492;-89
2023/04/01 00:28:41;;;;;;;;;;;10.80;99.90;11.20;99182.00;;;;343485;28;83565;-89
2023/04/01 00:28:53;;;;;;;;;;;10.80;99.90;11.20;99181.00;;;;344258;28;91331;-88
2023/04/01 00:29:05;;;;;;;;;;;10.80;99.90;11.10;99191.00;;;;342354;28;83537;-88
2023/04/01 00:29:17;;;;;;;;;;;10.80;99.90;11.10;99187.00;;;;345621;28;91302;-89
2023/04/01 00:29:30;;;;;;;;;;;10.80;99.90;11.10;99189.00;;;;346141;28;82639;-89
2023/04/01 00:29:43;;;;;;;;;;;10.80;99.90;11.10;99187.00;;;;342926;28;90497;-89
2023/04/01 00:29:55;;;;;;;;;;;10.80;99.90;11.10;99184.00;;;;343424;28;82710;-89
2023/04/01 00:30:07;;;;;;;;;;;10.80;99.90;11.10;99183.00;;;;342916;28;90537;-88
2023/04/01 00:30:19;;;;;;;;;;;10.80;99.90;11.10;99187.00;;;;343303;28;83419;-89
2023/04/01 00:30:31;;;;;;;;;;;10.70;99.90;11.00;99196.00;;;;345986;28;89563;-89
2023/04/01 00:30:42;;;;;;;;;;;10.70;99.90;11.00;99182.00;;;;347832;28;82688;-88
2023/04/01 00:30:54;;;;;;;;;;;10.80;99.90;11.20;99186.00;;;;343248;28;89752;-89
2023/04/01 00:31:07;;;;;;;;;;;10.70;99.90;11.10;99194.00;;;;343774;28;82709;-88
2023/04/01 00:31:19;;;;;;;;;;;10.70;99.90;11.20;99189.00;;;;345641;28;89989;-88
2023/04/01 00:31:31;;;;;;;;;;;10.70;99.90;11.10;99184.00;;;;346221;28;83260;-89
2023/04/01 00:31:43;;;;;;;;;;;10.70;99.90;11.00;99192.00;;;;348690;27;89572;-88
2023/04/01 00:31:56;;;;;;;;;;;10.70;99.90;11.00;99189.00;;;;347446;28;82358;-89
2023/04/01 00:32:08;;;;;;;;;;;10.70;99.90;10.90;99185.00;;;;343135;28;91565;-89
2023/04/01 00:32:20;;;;;;;;;;;10.70;99.90;10.90;99179.00;;;;346217;28;82556;-88
2023/04/01 00:32:32;;;;;;;;;;;10.70;99.90;11.00;99189.00;;;;344581;28;88706;-89
2023/04/01 00:32:43;;;;;;;;;;;10.70;99.90;10.90;99186.00;;;;347077;28;82621;-89
2023/04/01 00:32:55;;;;;;;;;;;10.70;99.90;10.90;99176.00;;;;345528;28;91441;-89
2023/04/01 00:33:07;;;;;;;;;;;10.70;99.90;10.90;99186.00;;;;344800;28;83437;-89
2023/04/01 00:33:20;;;;;;;;;;;10.70;99.90;10.90;99179.00;;;;343099;28;92113;-89
2023/04/01 00:33:32;;;;;;;;;;;10.70;99.90;11.00;99186.00;;;;343374;28;83574;-88
2023/04/01 00:33:43;;;;;;;;;;;10.70;99.90;11.00;99181.00;;;;345396;28;90608;-88
2023/04/01 00:33:56;;;;;;;;;;;10.70;99.90;11.10;99175.00;;;;346087;28;82420;-89
2023/04/01 00:34:07;;;;;;;;;;;10.70;99.90;11.10;99180.00;;;;347390;28;89239;-89
2023/04/01 00:34:20;;;;;;;;;;;10.70;99.90;11.00;99186.00;;;;346248;28;83004;-89
2023/04/01 00:34:32;;;;;;;;;;;10.70;99.90;11.00;99183.00;;;;344413;28;90694;-89
2023/04/01 00:34:44;;;;;;;;;;;10.70;99.90;11.20;99178.00;;;;345067;28;82596;-89
2023/04/01 00:34:58;;;;;;;;;;;10.70;99.90;11.20;99183.00;;;;344385;28;90446;-89
2023/04/01 00:35:10;;;;;;;;;;;10.70;99.90;11.10;99175.00;;;;346369;28;83460;-89
2023/04/01 00:35:22;;;;;;;;;;;10.70;99.90;11.20;99181.00;;;;344424;28;91688;-89
2023/04/01 00:35:34;;;;;;;;;;;10.70;99.90;11.20;99175.00;;;;342247;28;83359;-88
2023/04/01 00:35:46;;;;;;;;;;;10.60;99.90;11.20;99181.00;;;;343146;28;88970;-89
2023/04/01 00:36:06;;;;;;;;;;;10.60;99.90;11.10;99184.00;;;;343744;28;82492;-89
2023/04/01 00:36:19;;;;;;;;;;;10.70;99.90;11.10;99187.00;;;;345934;28;89288;-90
2023/04/01 00:36:31;;;;;;;;;;;10.70;99.90;11.10;99182.00;;;;345192;28;83418;-90
2023/04/01 00:36:43;;;;;;;;;;;10.70;99.90;11.10;99190.00;;;;345900;28;91351;-89
2023/04/01 00:36:55;;;;;;;;;;;10.70;99.90;11.10;99177.00;;;;345053;28;82243;-89
2023/04/01 00:37:07;;;;;;;;;;;10.70;99.90;11.00;99173.00;;;;342963;28;91559;-89
2023/04/01 00:37:20;;;;;;;;;;;10.60;99.90;10.80;99179.00;;;;346695;28;82583;-88
2023/04/01 00:37:34;;;;;;;;;;;10.60;99.90;10.80;99180.00;;;;344484;28;90230;-88
2023/04/01 00:37:47;;;;;;;;;;;10.70;99.90;10.80;99182.00;;;;345959;28;83486;-89
2023/04/01 00:37:59;;;;;;;;;;;10.70;99.90;10.90;99187.00;;;;347435;28;88316;-88
2023/04/01 00:38:11;;;;;;;;;;;10.70;99.90;10.80;99181.00;;;;346349;28;83438;-89
2023/04/01 00:38:22;;;;;;;;;;;10.70;99.90;10.80;99177.00;;;;345981;28;89820;-88
2023/04/01 00:38:34;;;;;;;;;;;10.60;99.90;10.80;99179.00;;;;346441;28;83336;-88
2023/04/01 00:38:46;;;;;;;;;;;10.60;99.90;10.80;99173.00;;;;347196;28;89825;-89
2023/04/01 00:38:59;;;;;;;;;;;10.60;99.90;10.80;99177.00;;;;344724;28;83655;-89
2023/04/01 00:39:11;;;;;;;;;;;10.60;99.90;10.90;99180.00;;;;344389;28;90747;-89
2023/04/01 00:39:22;;;;;;;;;;;10.60;99.90;10.90;99178.00;;;;343554;28;83480;-89
2023/04/01 00:39:34;;;;;;;;;;;10.60;99.90;10.90;99179.00;;;;345769;28;91835;-88
2023/04/01 00:39:46;;;;;;;;;;;10.60;99.90;10.90;99172.00;;;;346403;28;83451;-88
2023/04/01 00:39:58;;;;;;;;;;;10.60;99.90;11.00;99176.00;;;;343055;28;89365;-89
2023/04/01 00:40:23;;;;;;;;;;;10.60;99.90;11.20;99174.00;;;;345263;28;82458;-89
2023/04/01 00:40:40;;;;;;;;;;;10.60;99.90;11.20;99171.00;;;;344893;28;88104;-89
2023/04/01 00:40:57;;;;;;;;;;;10.60;99.90;11.10;99181.00;;;;343775;28;82386;-88
2023/04/01 00:41:14;;;;;;;;;;;10.70;99.90;11.00;99171.00;;;;343248;28;89017;-89
2023/04/01 00:41:26;;;;;;;;;;;10.60;99.90;10.90;99176.00;;;;346240;28;82605;-89
2023/04/01 00:41:37;;;;;;;;;;;10.60;99.90;11.00;99168.00;;;;345777;28;91164;-89
2023/04/01 00:41:49;;;;;;;;;;;10.60;99.90;11.00;99174.00;;;;343714;28;83469;-88
2023/04/01 00:42:01;;;;;;;;;;;10.60;99.90;11.00;99170.00;;;;344799;28;88094;-88
2023/04/01 00:42:13;;;;;;;;;;;10.60;99.90;11.00;99174.00;;;;343657;28;83231;-88
2023/04/01 00:42:25;;;;;;;;;;;10.60;99.90;10.90;99176.00;;;;345760;28;89358;-88
2023/04/01 00:42:37;;;;;;;;;;;10.60;99.90;10.90;99175.00;;;;342215;28;83320;-89
2023/04/01 00:42:49;;;;;;;;;;;10.60;99.90;10.90;99172.00;;;;345812;28;87646;-89
2023/04/01 00:43:01;;;;;;;;;;;10.60;99.90;10.90;99174.00;;;;344756;28;83465;-88
2023/04/01 00:43:18;;;;;;;;;;;10.60;99.90;11.00;99169.00;;;;345702;28;91629;-89
2023/04/01 00:43:30;;;;;;;;;;;10.60;99.90;11.00;99169.00;;;;344531;28;83532;-89
2023/04/01 00:43:42;;;;;;;;;;;10.60;99.90;10.90;99175.00;;;;344222;28;91729;-88
2023/04/01 00:44:14;;;;;;;;;;;10.60;99.90;10.90;99181.00;;;;345885;28;83325;-89
2023/04/01 00:44:28;;;;;;;;;;;10.50;99.90;11.00;99171.00;;;;345722;28;90511;-89
2023/04/01 00:44:40;;;;;;;;;;;10.60;99.90;10.90;99175.00;;;;344261;28;83520;-88
2023/04/01 00:44:52;;;;;;;;;;;10.60;99.90;10.80;99176.00;;;;344172;28;91620;-89
2023/04/01 00:45:31;;;;;;;;;;;10.50;99.90;11.00;99186.00;;;;346117;28;82532;-88
2023/04/01 00:45:44;;;;;;;;;;;10.50;99.90;11.00;99182.00;;;;343950;28;90297;-89
2023/04/01 00:45:56;;;;;;;;;;;10.50;99.90;11.00;99180.00;;;;343221;28;83504;-89
2023/04/01 00:46:08;;;;;;;;;;;10.50;99.90;11.00;99172.00;;;;344457;28;88382;-88
2023/04/01 00:46:20;;;;;;;;;;;10.60;99.90;11.00;99178.00;;;;345843;28;83494;-88
2023/04/01 00:46:31;;;;;;;;;;;10.50;99.90;11.10;99169.00;;;;342988;28;90190;-88
2023/04/01 00:46:43;;;;;;;;;;;10.50;99.90;11.10;99169.00;;;;344731;28;82448;-88
2023/04/01 00:46:55;;;;;;;;;;;10.60;99.90;11.00;99176.00;;;;345447;28;90325;-88
2023/04/01 00:47:07;;;;;;;;;;;10.60;99.90;11.00;99170.00;;;;344594;28;83644;-89
2023/04/01 00:47:19;;;;;;;;;;;10.60;99.90;11.00;99173.00;;;;344407;28;90523;-88
2023/04/01 00:47:31;;;;;;;;;;;10.50;99.90;10.90;99177.00;;;;344966;28;82360;-88
2023/04/01 00:47:43;;;;;;;;;;;10.60;99.90;10.80;99166.00;;;;342680;28;90773;-88
2023/04/01 00:47:55;;;;;;;;;;;10.50;99.90;10.80;99172.00;;;;344754;28;83413;-89
2023/04/01 00:48:35;;;;;;;;;;;10.50;99.90;10.80;99173.00;;;;345455;28;90708;-88
2023/04/01 00:48:49;;;;;;;;;;;10.50;99.90;11.00;99179.00;;;;342754;28;83524;-89
2023/04/01 00:49:01;;;;;;;;;;;10.50;99.90;11.00;99178.00;;;;344019;28;90428;-88
2023/04/01 00:49:14;;;;;;;;;;;10.50;99.90;11.00;99171.00;;;;345912;28;83366;-88
2023/04/01 00:49:30;;;;;;;;;;;10.50;99.90;10.90;99172.00;;;;342629;28;91527;-88
2023/04/01 00:49:45;;;;;;;;;;;10.50;99.90;10.90;99164.00;;;;343369;28;83421;-88
2023/04/01 00:49:56;;;;;;;;;;;10.50;99.90;10.90;99162.00;;;;345805;28;90631;-88
2023/04/01 00:50:08;;;;;;;;;;;10.50;99.90;11.00;99165.00;;;;344003;28;82425;-89
2023/04/01 00:50:22;;;;;;;;;;;10.50;99.90;10.90;99161.00;;;;343120;28;90648;-88
2023/04/01 00:50:34;;;;;;;;;;;10.50;99.90;10.90;99167.00;;;;344617;28;83614;-89
2023/04/01 00:50:49;;;;;;;;;;;10.50;99.90;11.00;99162.00;;;;343179;28;88042;-88
2023/04/01 00:51:06;;;;;;;;;;;10.50;99.90;10.90;99172.00;;;;343260;28;83598;-88
2023/04/01 00:51:20;;;;;;;;;;;10.50;99.90;10.80;99156.00;;;;343012;28;91412;-89
2023/04/01 00:51:35;;;;;;;;;;;10.50;99.90;11.00;99158.00;;;;345028;28;82356;-89
2023/04/01 00:51:48;;;;;;;;;;;10.50;99.90;11.00;99164.00;;;;343095;28;87907;-89
2023/04/01 00:52:00;;;;;;;;;;;10.50;99.90;11.00;99163.00;;;;344455;28;83676;-89
2023/04/01 00:52:14;;;;;;;;;;;10.50;99.90;10.90;99163.00;;;;341646;28;91641;-89
2023/04/01 00:52:26;;;;;;;;;;;10.50;99.90;10.80;99168.00;;;;343468;28;83398;-88
2023/04/01 00:52:37;;;;;;;;;;;10.50;99.90;10.80;99157.00;;;;342929;28;90933;-87
2023/04/01 00:52:49;;;;;;;;;;;10.50;99.90;10.80;99156.00;;;;343289;28;83230;-88
2023/04/01 00:53:01;;;;;;;;;;;10.50;99.90;10.80;99155.00;;;;344343;28;87724;-88
2023/04/01 00:53:13;;;;;;;;;;;10.50;99.90;10.70;99158.00;;;;346359;28;82499;-88
2023/04/01 00:53:24;;;;;;;;;;;10.50;99.90;10.90;99155.00;;;;345716;28;91368;-89
2023/04/01 00:53:39;;;;;;;;;;;10.50;99.90;11.00;99156.00;;;;344861;28;83361;-88
2023/04/01 00:53:51;;;;;;;;;;;10.50;99.90;11.00;99152.00;;;;343112;28;90523;-88
2023/04/01 00:54:03;;;;;;;;;;;10.50;99.90;10.90;99155.00;;;;344720;28;82575;-89
2023/04/01 00:54:16;;;;;;;;;;;10.50;99.90;11.00;99161.00;;;;343108;28;88842;-88
2023/04/01 00:54:28;;;;;;;;;;;10.50;99.90;10.90;99154.00;;;;344720;28;83569;-88
2023/04/01 00:54:42;;;;;;;;;;;10.50;99.90;10.90;99154.00;;;;343184;28;90578;-89
2023/04/01 00:54:56;;;;;;;;;;;10.50;99.90;10.90;99152.00;;;;344965;28;82590;-89
2023/04/01 00:55:08;;;;;;;;;;;10.50;99.90;11.00;99155.00;;;;344353;28;89774;-89
2023/04/01 00:55:20;;;;;;;;;;;10.50;99.90;10.90;99152.00;;;;344963;28;82354;-88
2023/04/01 00:55:33;;;;;;;;;;;10.50;99.90;10.90;99150.00;;;;344529;28;89977;-89
2023/04/01 00:55:57;;;;;;;;;;;10.50;99.90;10.80;99149.00;;;;342288;28;83537;-88
2023/04/01 00:56:14;;;;;;;;;;;10.50;99.90;11.00;99153.00;;;;345670;28;89350;-89
2023/04/01 00:56:30;;;;;;;;;;;10.50;99.90;10.90;99140.00;;;;344706;28;83310;-89
2023/04/01 00:56:45;;;;;;;;;;;10.50;99.90;11.00;99154.00;;;;344541;28;88726;-88
2023/04/01 00:56:59;;;;;;;;;;;10.50;99.90;11.00;99142.00;;;;344949;28;83337;-89
2023/04/01 00:57:27;;;;;;;;;;;10.50;99.90;11.00;99154.00;;;;344498;28;89179;-87
2023/04/01 00:57:39;;;;;;;;;;;10.50;99.90;11.00;99150.00;;;;344655;28;82585;-88
2023/04/01 00:57:51;;;;;;;;;;;10.50;99.90;10.90;99141.00;;;;345823;28;89010;-89
2023/04/01 00:58:04;;;;;;;;;;;10.50;99.90;10.80;99147.00;;;;343287;28;83479;-88
2023/04/01 00:58:16;;;;;;;;;;;10.50;99.90;10.70;99146.00;;;;344211;28;93004;-89
2023/04/01 00:58:29;;;;;;;;;;;10.50;99.90;10.70;99147.00;;;;343392;28;82545;-87
2023/04/01 00:58:44;;;;;;;;;;;10.50;99.90;10.70;99152.00;;;;342806;28;89570;-88
2023/04/01 00:58:58;;;;;;;;;;;10.50;99.90;10.70;99138.00;;;;343529;28;83477;-88
2023/04/01 00:59:14;;;;;;;;;;;10.50;99.90;10.70;99142.00;;;;342824;28;91488;-88
2023/04/01 00:59:33;;;;;;;;;;;10.50;99.90;10.80;99141.00;;;;344959;28;83564;-87
2023/04/01 00:59:47;;;;;;;;;;;10.50;99.90;10.90;99140.00;;;;345613;28;90674;-87
2023/04/01 00:59:59;;;;;;;;;;;10.50;99.90;11.00;99140.00;;;;346296;28;82429;-88
2023/04/01 01:00:13;;;;;;;;;;;10.50;99.90;11.00;99143.00;;;;344372;28;90857;-87
2023/04/01 01:00:26;;;;;;;;;;;10.50;99.90;11.00;99147.00;;;;343274;28;83434;-88
2023/04/01 01:00:37;;;;;;;;;;;10.50;99.90;11.00;99135.00;;;;342931;28;90027;-87
2023/04/01 01:00:49;;;;;;;;;;;10.50;99.90;10.90;99143.00;;;;345806;28;83405;-87
2023/04/01 01:01:01;;;;;;;;;;;10.50;99.90;11.00;99136.00;;;;344206;28;88375;-87
2023/04/01 01:01:13;;;;;;;;;;;10.50;99.90;11.00;99147.00;;;;344858;28;82447;-88
2023/04/01 01:01:25;;;;;;;;;;;10.50;99.90;10.90;99138.00;;;;345703;28;88158;-88
2023/04/01 01:01:37;;;;;;;;;;;10.50;99.90;11.00;99142.00;;;;346223;28;82409;-87
2023/04/01 01:01:50;;;;;;;;;;;10.50;99.90;11.00;99141.00;;;;345808;28;91392;-87
2023/04/01 01:02:02;;;;;;;;;;;10.50;99.90;11.00;99143.00;;;;344771;28;83373;-87
2023/04/01 01:02:15;;;;;;;;;;;10.50;99.90;11.00;99133.00;;;;345564;28;91407;-88
2023/04/01 01:02:27;;;;;;;;;;;10.50;99.90;11.00;99142.00;;;;344338;28;83383;-87
2023/04/01 01:02:41;;;;;;;;;;;10.50;99.90;11.00;99137.00;;;;343983;28;91783;-88
2023/04/01 01:02:53;;;;;;;;;;;10.50;99.90;11.00;99136.00;;;;345927;28;82830;-87
2023/04/01 01:03:04;;;;;;;;;;;10.50;99.90;11.00;99145.00;;;;342843;28;88402;-88
2023/04/01 01:03:16;;;;;;;;;;;10.50;99.90;10.90;99142.00;;;;344568;28;82660;-87
2023/04/01 01:03:28;;;;;;;;;;;10.50;99.90;11.00;99138.00;;;;345487;28;90553;-88
2023/04/01 01:03:40;;;;;;;;;;;10.50;99.90;11.00;99136.00;;;;344651;28;82594;-87